Latest Weather Observations for Dennes Point

IDT60801

Issued at 8:31 am EDT Tuesday 17 October 2017 (issued every 30 minutes, with the page automatically refreshed every 10 minutes)

About weather observations | Map of weather stations | Latest weather observations for TAS | Other Formats
Station Details ID: 094255 Name: DENNES POINT Lat: -43.06 Lon: 147.36 Height: 5.67 m
Data from the previous 72 hours. | See also: Recent months at Dennes Point
Date/Time
EDT
Temp
°C
App
Temp
°C
Dew
Point
°C
Rel
Hum
%
Delta-T
°C
Wind Press
QNH
hPa
Press
MSL
hPa
Rain since
9am
mm
Dir  Spd
km/h
Gust
km/h
Spd
kts
Gust
kts
17/08:30am 12.4 11.3 10.1 86 1.2 SW 6 6 3 3 1022.9 1022.9 0.0
17/08:00am 11.6 10.5 9.9 89 0.9 WSW 6 7 3 4 1022.6 1022.6 0.0
17/07:30am 10.7 8.9 9.3 91 0.7 SSW 9 11 5 6 1022.3 1022.3 0.0
17/07:00am 10.2 8.2 8.8 91 0.7 SSW 9 13 5 7 1022.0 1022.0 0.0
17/06:30am 9.8 7.7 8.2 90 0.8 SW 9 11 5 6 1021.6 1021.6 0.0
17/06:00am 10.6 9.6 8.9 89 0.8 SW 4 6 2 3 1021.4 1021.4 0.0
17/05:30am 11.2 11.1 9.3 88 1.0 CALM 0 0 0 0 1021.3 1021.3 0.0
17/05:00am 10.9 10.4 9.2 89 0.8 SSW 2 4 1 2 1021.3 1021.3 0.0
17/04:30am 10.7 10.3 8.3 85 1.2 CALM 0 6 0 3 1021.4 1021.4 0.0
17/04:00am 11.2 10.2 8.9 86 1.1 E 4 6 2 3 1021.5 1021.5 0.0
17/03:30am 9.5 7.6 7.4 87 1.0 SSW 7 7 4 4 1021.7 1021.7 0.0
17/03:00am 9.8 8.2 8.1 89 0.8 SW 6 9 3 5 1021.8 1021.8 0.0
17/02:30am 9.8 8.4 7.2 84 1.2 SW 4 7 2 4 1022.0 1022.0 0.0
17/02:00am 11.4 10.7 8.4 82 1.5 SW 2 4 1 2 1022.2 1022.2 0.0
17/01:30am 11.4 10.9 7.7 78 1.8 CALM 0 0 0 0 1022.8 1022.8 0.0
17/01:00am 10.7 8.6 6.8 77 1.8 SSW 7 7 4 4 1023.1 1023.1 0.0
17/12:30am 11.0 8.6 7.1 77 1.9 SSW 9 11 5 6 1023.3 1023.3 0.0
17/12:00am 11.1 9.1 7.0 76 1.9 SSW 7 9 4 5 1023.5 1023.5 0.0
 
Date/Time
EDT
Temp
°C
App
Temp
°C
Dew
Point
°C
Rel
Hum
%
Delta-T
°C
Wind Press
QNH
hPa
Press
MSL
hPa
Rain since
9am
mm
Dir  Spd
km/h
Gust
km/h
Spd
kts
Gust
kts
16/11:30pm 11.0 9.0 7.1 77 1.9 SSW 7 9 4 5 1023.6 1023.6 0.0
16/11:00pm 11.7 9.5 8.0 78 1.8 SSW 9 11 5 6 1024.0 1024.0 0.0
16/10:30pm 11.5 9.4 8.4 81 1.5 SSW 9 11 5 6 1024.3 1024.3 0.0
16/10:00pm 11.6 9.2 8.5 81 1.5 SW 11 13 6 7 1024.5 1024.5 0.0
16/09:30pm 11.7 9.7 8.6 81 1.5 SW 9 11 5 6 1024.5 1024.5 0.0
16/09:00pm 11.9 10.3 8.9 82 1.5 SW 7 9 4 5 1024.7 1024.7 0.0
16/08:30pm 12.6 10.2 10.1 85 1.3 SW 13 15 7 8 1024.6 1024.6 0.0
16/08:00pm 13.1 10.6 11.0 87 1.1 SW 15 19 8 10 1024.3 1024.3 0.0
16/07:30pm 13.5 10.6 11.0 85 1.3 SW 17 22 9 12 1024.1 1024.1 0.0
16/07:00pm 14.2 12.1 11.2 82 1.6 SW 13 19 7 10 1023.8 1023.8 0.0
16/06:30pm 14.9 12.8 11.1 78 2.0 SW 13 17 7 9 1023.5 1023.5 0.0
16/06:00pm 15.8 14.7 12.0 78 2.1 SW 9 13 5 7 1023.5 1023.5 0.0
16/05:30pm 15.7 15.4 11.3 75 2.4 NW 4 6 2 3 1023.5 1023.5 0.0
16/05:00pm 15.7 14.6 12.1 79 2.0 E 9 11 5 6 1023.4 1023.4 0.0
16/04:30pm 16.4 15.5 12.6 78 2.1 ESE 9 15 5 8 1022.9 1022.9 0.0
16/04:00pm 16.2 14.1 12.4 78 2.1 ESE 15 20 8 11 1022.9 1022.9 0.0
16/03:30pm 16.3 14.5 12.1 76 2.3 ESE 13 17 7 9 1023.0 1023.0 0.0
16/03:00pm 16.4 14.2 12.0 75 2.4 ESE 15 20 8 11 1023.3 1023.3 0.0
16/02:30pm 17.4 15.7 12.5 73 2.7 ESE 13 20 7 11 1023.4 1023.4 0.0
16/02:00pm 18.3 15.7 10.7 61 4.1 ESE 15 20 8 11 1023.6 1023.6 0.0
16/01:30pm 17.3 14.4 11.1 67 3.3 ESE 17 20 9 11 1023.6 1023.6 0.0
16/01:00pm 17.7 15.3 11.5 67 3.4 ESE 15 19 8 10 1023.6 1023.6 0.0
16/12:30pm 17.7 16.2 11.9 69 3.2 ESE 11 15 6 8 1023.9 1023.9 0.0
16/12:00pm 16.9 14.9 10.3 65 3.5 ESE 11 15 6 8 1024.1 1024.1 0.0
16/11:30am 16.7 15.5 10.3 66 3.4 E 7 13 4 7 1024.5 1024.5 0.0
16/11:00am 15.7 14.4 9.8 68 3.1 E 7 11 4 6 1024.8 1024.8 0.0
16/10:30am 14.9 14.1 9.7 71 2.7 ENE 4 6 2 3 1025.1 1025.1 0.0
16/10:00am 14.4 13.3 9.8 74 2.4 NNE 6 6 3 3 1025.2 1025.2 0.0
16/09:30am 13.9 11.5 10.1 78 2.0 NNE 13 17 7 9 1025.1 1025.1 0.0
16/09:00am 13.4 11.4 10.0 80 1.7 NE 11 15 6 8 1025.1 1025.1 0.0
16/08:30am 12.6 11.8 9.6 82 1.5 NNE 4 6 2 3 1025.1 1025.1 0.0
16/08:00am 12.1 10.0 9.7 85 1.2 NNE 11 15 6 8 1025.1 1025.1 0.0
16/07:30am 11.9 10.1 9.6 86 1.2 N 9 11 5 6 1025.1 1025.1 0.0
16/07:00am 11.6 9.8 9.3 86 1.1 N 9 13 5 7 1024.9 1024.9 0.0
16/06:30am 12.0 9.9 9.9 87 1.1 NNE 11 15 6 8 1024.7 1024.7 0.0
16/06:00am 12.2 10.1 9.9 86 1.2 NNE 11 17 6 9 1024.5 1024.5 0.0
16/05:30am 12.0 10.7 9.9 87 1.1 N 7 9 4 5 1024.4 1024.4 0.0
16/05:00am 12.3 11.3 10.2 87 1.1 N 6 9 3 5 1024.4 1024.4 0.0
16/04:30am 12.2 10.9 9.9 86 1.2 N 7 15 4 8 1024.5 1024.5 0.0
16/04:00am 12.3 12.2 10.7 90 0.8 NE 2 4 1 2 1024.6 1024.6 0.0
16/03:30am 12.2 12.5 10.8 91 0.7 CALM 0 0 0 0 1024.8 1024.8 0.0
16/03:00am 12.1 11.2 10.7 91 0.7 SSE 6 7 3 4 1025.1 1025.1 0.0
16/02:30am 12.2 11.1 10.6 90 0.8 ESE 7 13 4 7 1025.5 1025.5 0.0
16/02:00am 12.2 11.1 10.6 90 0.8 SE 7 13 4 7 1025.8 1025.8 0.0
16/01:30am 12.1 10.6 10.5 90 0.8 SE 9 13 5 7 1025.9 1025.9 0.0
16/01:00am 12.2 10.3 10.6 90 0.8 ESE 11 15 6 8 1026.0 1026.0 0.0
16/12:30am 12.4 10.9 10.6 89 0.9 SE 9 15 5 8 1026.1 1026.1 0.0
16/12:00am 12.4 10.5 10.5 88 1.0 ESE 11 15 6 8 1026.0 1026.0 0.0
 
Date/Time
EDT
Temp
°C
App
Temp
°C
Dew
Point
°C
Rel
Hum
%
Delta-T
°C
Wind Press
QNH
hPa
Press
MSL
hPa
Rain since
9am
mm
Dir  Spd
km/h
Gust
km/h
Spd
kts
Gust
kts
15/11:30pm 12.2 10.2 10.3 88 1.0 ESE 11 15 6 8 1026.0 1026.0 0.0
15/11:00pm 12.2 9.9 10.4 89 0.9 ESE 13 17 7 9 1025.9 1025.9 0.0
15/10:30pm 12.3 10.1 10.7 90 0.8 ESE 13 17 7 9 1025.7 1025.7 0.0
15/10:00pm 12.2 9.9 10.6 90 0.8 ESE 13 17 7 9 1025.6 1025.6 0.0
15/09:30pm 12.0 9.7 10.4 90 0.8 ESE 13 17 7 9 1025.2 1025.2 0.0
15/09:00pm 12.0 10.1 10.6 91 0.7 ESE 11 17 6 9 1025.0 1025.0 0.0
15/08:30pm 12.2 9.9 10.6 90 0.8 ESE 13 15 7 8 1024.7 1024.7 0.0
15/08:00pm 12.4 10.2 10.8 90 0.8 E 13 15 7 8 1024.1 1024.1 0.0
15/07:30pm 12.4 10.1 10.5 88 1.0 E 13 15 7 8 1023.8 1023.8 0.0
15/07:00pm 13.0 11.6 10.9 87 1.1 ENE 9 11 5 6 1023.5 1023.5 0.0
15/06:30pm 13.3 11.8 10.7 84 1.4 ENE 9 9 5 5 1023.3 1023.3 0.0
15/06:00pm 13.8 11.7 11.0 83 1.5 E 13 13 7 7 1022.9 1022.9 0.0
15/05:30pm 14.5 12.9 11.7 83 1.5 E 11 17 6 9 1022.6 1022.6 0.0
15/05:00pm 14.7 11.9 11.5 81 1.7 ESE 17 19 9 10 1022.3 1022.3 0.0
15/04:30pm 15.0 12.7 11.6 80 1.8 E 15 17 8 9 1022.0 1022.0 0.0
15/04:00pm 15.9 12.2 9.3 65 3.4 ESE 19 24 10 13 1021.6 1021.6 0.0
15/03:30pm 16.2 12.2 8.9 62 3.7 ESE 20 24 11 13 1021.4 1021.4 0.0
15/03:00pm 16.6 13.2 9.3 62 3.8 ESE 17 26 9 14 1021.4 1021.4 0.0
15/02:30pm 16.7 13.7 9.1 61 3.9 ESE 15 22 8 12 1021.2 1021.2 0.0
15/02:00pm 16.1 12.3 9.1 63 3.6 ESE 19 28 10 15 1021.2 1021.2 0.0
15/01:30pm 15.8 11.3 9.9 68 3.1 ESE 24 35 13 19 1020.9 1020.9 0.0
15/01:00pm 19.4 16.6 8.4 49 5.7 SSW 13 30 7 16 1020.5 1020.5 0.0
15/12:30pm 20.7 18.5 7.7 43 6.7 SW 9 15 5 8 1020.3 1020.3 0.0
15/12:00pm 20.1 14.2 7.5 44 6.4 W 28 35 15 19 1020.2 1020.2 0.0
15/11:30am 19.8 18.1 8.2 47 6.0 WNW 7 20 4 11 1020.2 1020.2 0.0
15/11:00am 17.7 16.2 8.3 54 4.8 E 6 11 3 6 1020.5 1020.5 0.0
15/10:30am 16.4 13.2 8.6 60 4.0 NNE 15 20 8 11 1020.6 1020.6 0.0
15/10:00am 16.9 15.3 8.1 56 4.5 ESE 6 13 3 7 1020.4 1020.4 0.0
15/09:30am 15.9 12.0 6.9 55 4.4 NW 17 32 9 17 1020.2 1020.2 0.0
15/09:00am 16.0 11.2 7.2 56 4.3 WNW 22 28 12 15 1019.7 1019.7 0.0
15/08:30am 15.6 11.1 7.1 57 4.2 WNW 20 30 11 16 1019.6 1019.6 0.0
15/08:00am 14.2 11.1 7.3 63 3.4 NW 13 17 7 9 1019.3 1019.3 0.0
15/07:30am 13.1 12.1 7.5 69 2.7 NNE 2 6 1 3 1019.0 1019.0 0.0
15/07:00am 13.0 11.7 6.1 63 3.3 ENE 2 4 1 2 1018.5 1018.5 0.0
15/06:30am 12.2 10.3 7.5 73 2.3 NNE 7 11 4 6 1018.0 1018.0 0.0
15/06:00am 13.0 10.5 6.6 65 3.1 WNW 9 17 5 9 1017.6 1017.6 0.0
15/05:30am 12.1 10.3 7.0 71 2.4 N 6 9 3 5 1017.6 1017.6 0.0
15/05:00am 14.2 11.5 5.8 57 4.0 SSW 9 13 5 7 1017.5 1017.5 0.0
15/04:30am 14.6 11.5 5.7 55 4.2 S 11 17 6 9 1017.5 1017.5 0.0
15/04:00am 14.7 11.3 5.8 55 4.2 SSW 13 28 7 15 1017.8 1017.8 0.0
15/03:30am 14.3 11.2 5.7 56 4.1 W 11 24 6 13 1018.1 1018.1 0.0
15/03:00am 14.3 10.2 6.2 58 3.9 NW 17 24 9 13 1018.1 1018.1 0.0
15/02:30am 14.6 9.2 6.2 57 4.0 NW 24 35 13 19 1018.3 1018.3 0.0
15/02:00am 13.6 9.0 6.5 62 3.4 WNW 20 26 11 14 1018.5 1018.5 0.0
15/01:30am 13.7 10.1 6.6 62 3.4 NW 15 32 8 17 1018.9 1018.9 0.0
15/01:00am 12.4 9.8 6.2 66 2.9 WSW 9 15 5 8 1019.1 1019.1 0.0
15/12:30am 13.2 8.7 5.9 61 3.4 W 19 26 10 14 1019.2 1019.2 0.0
15/12:00am 13.3 9.6 6.2 62 3.4 W 15 24 8 13 1019.1 1019.1 0.0
 
Date/Time
EDT
Temp
°C
App
Temp
°C
Dew
Point
°C
Rel
Hum
%
Delta-T
°C
Wind Press
QNH
hPa
Press
MSL
hPa
Rain since
9am
mm
Dir  Spd
km/h
Gust
km/h
Spd
kts
Gust
kts
14/11:30pm 13.7 8.7 6.6 62 3.4 WNW 22 28 12 15 1019.0 1019.0 0.0
14/11:00pm 13.7 9.1 6.6 62 3.4 WNW 20 24 11 13 1019.1 1019.1 0.0
14/10:30pm 14.1 10.9 6.7 61 3.6 NW 13 20 7 11 1019.2 1019.2 0.0
14/10:00pm 14.0 10.3 6.1 59 3.8 NW 15 26 8 14 1019.3 1019.3 0.0
14/09:30pm 14.2 9.2 6.3 59 3.8 NW 22 30 12 16 1019.6 1019.6 0.0
14/09:00pm 14.4 9.6 5.7 56 4.1 NW 20 28 11 15 1019.6 1019.6 0.0
14/08:30pm 14.5 10.7 5.8 56 4.1 NW 15 22 8 12 1019.6 1019.6 0.0
14/08:00pm 14.9 10.7 5.7 54 4.4 WNW 17 22 9 12 1019.4 1019.4 0.0
14/07:30pm 15.2 11.4 5.7 53 4.5 NW 15 19 8 10 1019.3 1019.3 0.0
14/07:00pm 15.3 11.9 6.1 54 4.4 W 13 17 7 9 1019.0 1019.0 0.0
14/06:30pm 15.9 12.7 6.9 55 4.4 WSW 13 15 7 8 1018.9 1018.9 0.0
14/06:00pm 16.3 12.6 6.2 51 4.9 WSW 15 19 8 10 1018.8 1018.8 0.0
14/05:30pm 16.3 12.8 7.0 54 4.6 WSW 15 17 8 9 1018.7 1018.7 0.0
14/05:00pm 16.9 12.7 5.5 47 5.5 W 17 22 9 12 1018.7 1018.7 0.0
14/04:30pm 16.7 12.0 6.2 50 5.1 W 20 28 11 15 1018.9 1018.9 0.0
14/04:00pm 16.8 12.9 6.9 52 4.9 WSW 17 24 9 13 1019.1 1019.1 0.0
14/03:30pm 17.0 12.7 5.3 46 5.6 WSW 17 22 9 12 1019.4 1019.4 0.0
14/03:00pm 16.8 13.2 4.8 45 5.7 WSW 13 17 7 9 1019.7 1019.7 0.0
14/02:30pm 16.5 12.9 4.9 46 5.5 W 13 19 7 10 1019.9 1019.9 0.0
14/02:00pm 16.1 13.3 5.1 48 5.2 WSW 9 15 5 8 1020.0 1020.0 0.0
14/01:30pm 15.7 9.8 4.1 46 5.4 W 24 28 13 15 1020.1 1020.1 0.0
14/01:00pm 14.3 8.0 4.0 50 4.7 W 26 35 14 19 1020.1 1020.1 0.0
14/12:30pm 13.6 7.9 3.1 49 4.7 WSW 22 32 12 17 1020.7 1020.7 0.0
14/12:00pm 14.5 9.9 3.6 48 4.9 W 17 24 9 13 1021.1 1021.1 0.0
14/11:30am 14.4 9.8 3.8 49 4.8 W 17 24 9 13 1021.1 1021.1 0.0
14/11:00am 13.9 9.1 4.5 53 4.3 W 19 24 10 13 1021.3 1021.3 0.0
14/10:30am 12.1 9.6 3.9 57 3.7 SSW 6 15 3 8 1021.4 1021.4 0.0
14/10:00am 11.4 9.2 3.2 57 3.6 N 4 15 2 8 1021.7 1021.7 0.0
14/09:30am 11.8 8.9 2.8 54 3.9 NW 7 13 4 7 1021.5 1021.5 0.0
14/09:00am 11.1 8.6 3.6 60 3.3 NW 6 7 3 4 1021.6 1021.6 0.0

Other Formats:

Comma delimited format used in spreadsheet applications
http://www.bom.gov.au/fwo/IDT60801/IDT60801.94988.axf

JavaScript Object Notation format (JSON) in row-major order
http://www.bom.gov.au/fwo/IDT60801/IDT60801.94988.json